createdAt,value
2023-04-05T00:02:45.329Z,21.70
2023-04-05T00:05:54.768Z,21.60
2023-04-05T00:09:04.628Z,21.60
2023-04-05T00:12:12.699Z,21.60
2023-04-05T00:15:20.707Z,21.60
2023-04-05T00:18:34.040Z,21.60
2023-04-05T00:21:41.855Z,21.60
2023-04-05T00:24:51.060Z,21.60
2023-04-05T00:27:59.052Z,21.60
2023-04-05T00:31:07.119Z,21.60
2023-04-05T00:34:15.402Z,21.60
2023-04-05T00:37:23.424Z,21.60
2023-04-05T00:40:32.910Z,21.60
2023-04-05T00:43:41.157Z,21.60
2023-04-05T00:46:49.141Z,21.60
2023-04-05T00:49:57.222Z,21.70
2023-04-05T00:53:05.394Z,21.70
2023-04-05T00:56:14.915Z,21.70
2023-04-05T00:59:22.833Z,21.70
2023-04-05T01:02:33.782Z,21.70
2023-04-05T01:05:43.104Z,21.70
2023-04-05T01:08:56.224Z,21.70
2023-04-05T01:12:07.556Z,21.70
2023-04-05T01:15:15.877Z,21.70
2023-04-05T01:18:24.425Z,21.70
2023-04-05T01:21:47.750Z,21.70
2023-04-05T01:25:10.991Z,21.70
2023-04-05T01:28:42.568Z,21.70
2023-04-05T01:31:54.095Z,21.70
2023-04-05T01:35:06.394Z,21.70
2023-04-05T01:38:16.866Z,21.70
2023-04-05T01:41:27.142Z,21.70
2023-04-05T01:44:35.312Z,21.80
2023-04-05T01:47:44.620Z,21.70
2023-04-05T01:50:53.075Z,21.70
2023-04-05T01:54:01.212Z,21.70
2023-04-05T01:57:09.454Z,21.70
2023-04-05T02:00:17.919Z,21.70
2023-04-05T02:03:28.199Z,21.70
2023-04-05T02:06:36.340Z,21.70
2023-04-05T02:09:44.358Z,21.70
2023-04-05T02:12:53.837Z,21.70
2023-04-05T02:16:01.490Z,21.70
2023-04-05T02:19:13.126Z,21.70
2023-04-05T02:22:21.450Z,21.70
2023-04-05T02:25:29.366Z,21.60
2023-04-05T02:28:37.361Z,21.60
2023-04-05T02:31:45.272Z,21.60
2023-04-05T02:34:56.392Z,21.60
2023-04-05T02:38:04.776Z,21.60
2023-04-05T02:41:15.343Z,21.60
2023-04-05T02:44:23.189Z,21.60
2023-04-05T02:47:33.672Z,21.60
2023-04-05T02:50:43.893Z,21.60
2023-04-05T02:53:53.001Z,21.60
2023-04-05T02:57:02.339Z,21.60
2023-04-05T03:00:16.321Z,21.60
2023-04-05T03:03:24.547Z,21.60
2023-04-05T03:06:34.008Z,21.60
2023-04-05T03:09:44.590Z,21.60
2023-04-05T03:12:52.669Z,21.50
2023-04-05T03:16:04.820Z,21.50
2023-04-05T03:19:13.240Z,21.50
2023-04-05T03:22:27.235Z,21.50
2023-04-05T03:25:37.407Z,21.50
2023-04-05T03:28:46.893Z,21.50
2023-04-05T03:31:55.767Z,21.50
2023-04-05T03:35:06.103Z,21.50
2023-04-05T03:38:17.268Z,21.50
2023-04-05T03:41:35.890Z,21.50
2023-04-05T03:44:44.003Z,21.50
2023-04-05T03:47:52.182Z,21.50
2023-04-05T03:50:59.840Z,21.50
2023-04-05T03:54:09.410Z,21.50
2023-04-05T03:57:19.787Z,21.40
2023-04-05T04:00:30.313Z,21.40
2023-04-05T04:04:01.238Z,21.40
2023-04-05T04:07:10.570Z,21.40
2023-04-05T04:10:19.969Z,21.40
2023-04-05T04:13:32.803Z,21.40
2023-04-05T04:17:09.489Z,21.40
2023-04-05T04:20:49.470Z,21.40
2023-04-05T04:24:18.597Z,21.40
2023-04-05T04:27:48.066Z,21.50
2023-04-05T04:31:14.681Z,21.50
2023-04-05T04:34:37.656Z,21.50
2023-04-05T04:38:10.734Z,21.50
2023-04-05T04:41:22.818Z,21.50
2023-04-05T04:44:32.889Z,21.50
2023-04-05T04:48:01.174Z,21.50
2023-04-05T04:51:38.999Z,21.50
2023-04-05T04:54:47.238Z,21.50
2023-04-05T04:57:55.059Z,21.60
2023-04-05T05:01:08.738Z,21.60
2023-04-05T05:04:16.674Z,21.60
2023-04-05T05:07:26.139Z,21.60
2023-04-05T05:10:34.107Z,21.60
2023-04-05T05:13:46.909Z,21.60
2023-04-05T05:17:05.207Z,21.70
2023-04-05T05:20:13.563Z,21.70
2023-04-05T05:23:26.597Z,21.70
2023-04-05T05:26:34.622Z,21.70
2023-04-05T05:29:42.448Z,21.80
2023-04-05T05:32:52.857Z,21.80
2023-04-05T05:36:00.960Z,21.80
2023-04-05T05:39:09.059Z,21.80
2023-04-05T05:42:17.218Z,21.80
2023-04-05T05:45:24.984Z,22.00
2023-04-05T05:48:34.395Z,22.10
2023-04-05T05:51:42.339Z,22.20
2023-04-05T05:54:50.524Z,22.30
2023-04-05T05:57:58.510Z,22.20
2023-04-05T06:01:07.545Z,22.30
2023-04-05T06:04:16.974Z,22.20
2023-04-05T06:07:24.935Z,22.20
2023-04-05T06:10:33.304Z,22.10
2023-04-05T06:13:41.470Z,22.10
2023-04-05T06:16:49.742Z,22.10
2023-04-05T06:19:58.979Z,22.00
2023-04-05T06:23:06.952Z,22.00
2023-04-05T06:26:18.801Z,22.00
2023-04-05T06:29:27.030Z,22.00
2023-04-05T06:32:35.148Z,22.00
2023-04-05T06:35:44.603Z,22.00
2023-04-05T06:38:53.008Z,22.00
2023-04-05T06:42:01.363Z,22.00
2023-04-05T06:45:20.090Z,22.00
2023-04-05T06:48:29.369Z,22.00
2023-04-05T06:51:38.815Z,22.00
2023-04-05T06:54:46.819Z,22.10
2023-04-05T06:57:55.712Z,22.00
2023-04-05T07:01:03.982Z,22.10
2023-04-05T07:04:12.409Z,22.00
2023-04-05T07:07:22.124Z,22.10
2023-04-05T07:10:30.174Z,22.10
2023-04-05T07:13:37.857Z,22.10
2023-04-05T07:16:46.965Z,22.10
2023-04-05T07:19:56.626Z,22.10
2023-04-05T07:23:07.254Z,22.10
2023-04-05T07:26:15.701Z,22.10
2023-04-05T07:29:23.557Z,22.10
2023-04-05T07:32:31.809Z,22.10
2023-04-05T07:35:39.982Z,22.10
2023-04-05T07:38:49.431Z,22.10
2023-04-05T07:41:57.791Z,22.10
2023-04-05T07:45:07.065Z,22.10
2023-04-05T07:48:15.485Z,22.10
2023-04-05T07:51:23.336Z,22.10
2023-04-05T07:54:34.055Z,22.10
2023-04-05T07:57:41.860Z,22.20
2023-04-05T08:00:49.841Z,22.20
2023-04-05T08:03:58.264Z,22.20
2023-04-05T08:07:06.027Z,22.20
2023-04-05T08:10:15.600Z,22.20
2023-04-05T08:13:23.937Z,22.20
2023-04-05T08:16:31.902Z,22.20
2023-04-05T08:19:39.761Z,22.20
2023-04-05T08:22:47.956Z,22.20
2023-04-05T08:25:57.145Z,22.20
2023-04-05T08:29:05.142Z,22.20
2023-04-05T08:32:13.246Z,22.30
2023-04-05T08:35:21.223Z,22.20
2023-04-05T08:38:29.427Z,22.30
2023-04-05T08:41:43.506Z,22.30
2023-04-05T08:44:52.715Z,22.30
2023-04-05T08:48:00.698Z,22.30
2023-04-05T08:51:09.376Z,22.30
2023-04-05T08:54:17.773Z,22.30
2023-04-05T08:57:27.973Z,22.30
2023-04-05T09:00:35.843Z,22.30
2023-04-05T09:03:44.118Z,22.30
2023-04-05T09:06:52.666Z,22.30
2023-04-05T09:10:00.604Z,22.30
2023-04-05T09:13:10.279Z,22.30
2023-04-05T09:16:18.043Z,22.30
2023-04-05T09:19:26.113Z,22.30
2023-04-05T09:22:34.088Z,22.30
2023-04-05T09:25:42.541Z,22.40
2023-04-05T09:28:51.666Z,22.40
2023-04-05T09:31:59.684Z,22.40
2023-04-05T09:35:08.193Z,22.40
2023-04-05T09:38:16.890Z,22.40
2023-04-05T09:41:24.996Z,22.40
2023-04-05T09:44:55.825Z,22.40
2023-04-05T09:48:04.079Z,22.40
2023-04-05T09:51:13.177Z,22.40
2023-04-05T09:54:21.417Z,22.40
2023-04-05T09:57:29.637Z,22.40
2023-04-05T10:00:39.972Z,22.40
2023-04-05T10:03:48.986Z,22.40
2023-04-05T10:06:57.177Z,22.40
2023-04-05T10:10:05.701Z,22.40
2023-04-05T10:13:14.103Z,22.40
2023-04-05T10:16:23.700Z,22.40
2023-04-05T10:19:35.779Z,22.40
2023-04-05T10:22:50.450Z,22.40
2023-04-05T10:26:01.818Z,22.50
2023-04-05T10:29:14.514Z,22.40
2023-04-05T10:32:28.488Z,22.50
2023-04-05T10:35:41.116Z,22.40
2023-04-05T10:38:54.079Z,22.40
2023-04-05T10:42:02.994Z,22.40
2023-04-05T10:45:12.155Z,22.40
2023-04-05T10:48:26.725Z,22.40
2023-04-05T10:51:35.250Z,22.40
2023-04-05T10:54:43.174Z,22.40
2023-04-05T10:57:51.153Z,22.40
2023-04-05T11:00:59.343Z,22.30
2023-04-05T11:04:14.825Z,22.30
2023-04-05T11:07:23.080Z,22.30
2023-04-05T11:10:31.141Z,22.30
2023-04-05T11:13:49.411Z,22.30
2023-04-05T11:16:58.859Z,22.30
2023-04-05T11:20:13.225Z,22.30
2023-04-05T11:23:21.710Z,22.30
2023-04-05T11:26:32.979Z,22.30
2023-04-05T11:29:48.659Z,22.30
2023-04-05T11:32:56.867Z,22.30
2023-04-05T11:36:06.921Z,22.30
2023-04-05T11:39:33.167Z,22.30
2023-04-05T11:42:41.262Z,22.30
2023-04-05T11:45:49.388Z,22.30
2023-04-05T11:48:57.589Z,22.30
2023-04-05T11:52:14.015Z,22.30
2023-04-05T11:55:27.861Z,22.20
2023-04-05T11:58:35.585Z,22.30
2023-04-05T12:01:45.829Z,22.30
2023-04-05T12:04:57.612Z,22.30
2023-04-05T12:08:07.491Z,22.20
2023-04-05T12:11:15.430Z,22.20
2023-04-05T12:14:24.800Z,22.20
2023-04-05T12:17:43.446Z,22.20
2023-04-05T12:20:51.515Z,22.20
2023-04-05T12:24:01.159Z,22.30
2023-04-05T12:27:09.084Z,22.30
2023-04-05T12:30:17.806Z,22.30
2023-04-05T12:33:29.307Z,22.30
2023-04-05T12:36:37.409Z,22.30
2023-04-05T12:39:46.985Z,22.30
2023-04-05T12:42:54.709Z,22.30
2023-04-05T12:46:02.851Z,22.30
2023-04-05T12:49:12.528Z,22.30
2023-04-05T12:52:20.953Z,22.30
2023-04-05T12:55:30.558Z,22.30
2023-04-05T12:58:39.979Z,22.20
2023-04-05T13:01:47.886Z,22.20
2023-04-05T13:04:55.801Z,22.30
2023-04-05T13:08:03.834Z,22.30
2023-04-05T13:11:12.895Z,22.30
2023-04-05T13:14:20.855Z,22.30
2023-04-05T13:17:28.914Z,22.30
2023-04-05T13:20:36.991Z,22.30
2023-04-05T13:23:44.750Z,22.30
2023-04-05T13:26:54.121Z,22.30
2023-04-05T13:30:02.254Z,22.30
2023-04-05T13:33:10.164Z,22.30
2023-04-05T13:36:18.139Z,22.30
2023-04-05T13:39:26.341Z,22.30
2023-04-05T13:42:35.927Z,22.30
2023-04-05T13:45:44.186Z,22.30
2023-04-05T13:48:52.502Z,22.30
2023-04-05T13:52:00.509Z,22.30
2023-04-05T13:55:09.108Z,22.30
2023-04-05T13:58:18.384Z,22.30
2023-04-05T14:01:26.372Z,22.20
2023-04-05T14:04:34.239Z,22.30
2023-04-05T14:07:42.401Z,22.20
2023-04-05T14:10:50.356Z,22.20
2023-04-05T14:13:59.580Z,22.20
2023-04-05T14:17:08.072Z,22.20
2023-04-05T14:20:16.289Z,22.20
2023-04-05T14:23:26.887Z,22.20
2023-04-05T14:26:35.349Z,22.20
2023-04-05T14:29:45.637Z,22.20
2023-04-05T14:32:53.977Z,22.10
2023-04-05T14:36:02.222Z,22.10
2023-04-05T14:39:10.557Z,22.10
2023-04-05T14:42:18.592Z,22.10
2023-04-05T14:45:28.365Z,22.10
2023-04-05T14:48:37.417Z,22.10
2023-04-05T14:51:45.392Z,22.10
2023-04-05T14:54:53.833Z,22.10
2023-04-05T14:58:01.775Z,22.10
2023-04-05T15:01:11.365Z,22.10
2023-04-05T15:04:19.671Z,22.10
2023-04-05T15:07:27.607Z,22.10
2023-04-05T15:10:35.830Z,22.10
2023-04-05T15:13:44.117Z,22.10
2023-04-05T15:16:53.343Z,22.10
2023-04-05T15:20:01.561Z,22.10
2023-04-05T15:23:09.818Z,22.10
2023-04-05T15:26:18.076Z,22.10
2023-04-05T15:29:26.113Z,22.10
2023-04-05T15:32:35.605Z,22.10
2023-04-05T15:35:43.825Z,22.10
2023-04-05T15:38:51.788Z,22.10
2023-04-05T15:42:01.562Z,22.10
2023-04-05T15:45:10.662Z,22.20
2023-04-05T15:48:20.018Z,22.20
2023-04-05T15:51:28.377Z,22.20
2023-04-05T15:54:36.514Z,22.20
2023-04-05T15:57:44.918Z,22.20
2023-04-05T16:00:53.279Z,22.20
2023-04-05T16:04:04.116Z,22.20
2023-04-05T16:07:12.791Z,22.20
2023-04-05T16:10:20.792Z,22.20
2023-04-05T16:13:29.160Z,22.20
2023-04-05T16:16:46.012Z,22.20
2023-04-05T16:20:02.195Z,22.20
2023-04-05T16:23:10.516Z,22.20
2023-04-05T16:26:18.725Z,22.20
2023-04-05T16:29:27.246Z,22.20
2023-04-05T16:32:35.345Z,22.20
2023-04-05T16:35:44.676Z,22.20
2023-04-05T16:38:52.745Z,22.20
2023-04-05T16:42:01.079Z,22.20
2023-04-05T16:45:10.815Z,22.20
2023-04-05T16:48:19.049Z,22.20
2023-04-05T16:51:28.717Z,22.30
2023-04-05T16:54:36.698Z,22.20
2023-04-05T16:57:45.258Z,22.30
2023-04-05T17:00:58.596Z,22.30
2023-04-05T17:04:06.697Z,22.30
2023-04-05T17:07:16.256Z,22.30
2023-04-05T17:10:24.234Z,22.30
2023-04-05T17:13:32.683Z,22.30
2023-04-05T17:16:40.931Z,22.30
2023-04-05T17:19:48.964Z,22.30
2023-04-05T17:22:59.535Z,22.30
2023-04-05T17:26:07.492Z,22.30
2023-04-05T17:29:17.491Z,22.30
2023-04-05T17:32:26.654Z,22.30
2023-04-05T17:35:34.790Z,22.20
2023-04-05T17:38:44.371Z,22.30
2023-04-05T17:41:54.671Z,22.30
2023-04-05T17:45:03.547Z,22.20
2023-04-05T17:48:11.964Z,22.20
2023-04-05T17:51:20.674Z,22.20
2023-04-05T17:54:30.860Z,22.20
2023-04-05T17:57:38.879Z,22.20
2023-04-05T18:00:47.096Z,22.20
2023-04-05T18:03:55.348Z,22.20
2023-04-05T18:07:03.270Z,22.20
2023-04-05T18:10:13.441Z,22.20
2023-04-05T18:13:21.414Z,22.20
2023-04-05T18:16:29.879Z,22.20
2023-04-05T18:19:38.280Z,22.20
2023-04-05T18:22:46.444Z,22.20
2023-04-05T18:25:56.306Z,22.10
2023-04-05T18:29:05.215Z,22.10
2023-04-05T18:32:13.537Z,22.10
2023-04-05T18:35:22.019Z,22.10
2023-04-05T18:38:30.469Z,22.10
2023-04-05T18:41:39.810Z,22.10
2023-04-05T18:44:49.255Z,22.10
2023-04-05T18:47:57.270Z,22.00
2023-04-05T18:51:06.239Z,22.00
2023-04-05T18:54:14.240Z,22.00
2023-04-05T18:57:24.033Z,22.00
2023-04-05T19:00:32.259Z,22.00
2023-04-05T19:03:40.523Z,21.90
2023-04-05T19:06:48.834Z,21.90
2023-04-05T19:09:57.091Z,21.90
2023-04-05T19:13:06.751Z,21.90
2023-04-05T19:16:17.253Z,21.90
2023-04-05T19:19:25.509Z,21.90
2023-04-05T19:22:33.329Z,21.90
2023-04-05T19:25:41.663Z,21.90
2023-04-05T19:28:51.226Z,21.90
2023-04-05T19:31:59.100Z,21.90
2023-04-05T19:35:08.936Z,21.90
2023-04-05T19:38:16.867Z,21.90
2023-04-05T19:41:26.035Z,21.90
2023-04-05T19:44:44.905Z,21.90
2023-04-05T19:47:53.693Z,21.90
2023-04-05T19:51:02.085Z,21.90
2023-04-05T19:54:12.376Z,21.90
2023-04-05T19:57:20.464Z,21.90
2023-04-05T20:00:37.244Z,21.90
2023-04-05T20:03:45.485Z,21.90
2023-04-05T20:06:55.163Z,21.90
2023-04-05T20:10:03.096Z,21.90
2023-04-05T20:13:11.387Z,21.90
2023-04-05T20:16:25.552Z,21.90
2023-04-05T20:19:33.763Z,21.90
2023-04-05T20:22:41.680Z,21.90
2023-04-05T20:25:50.542Z,21.90
2023-04-05T20:28:58.944Z,21.90
2023-04-05T20:32:08.723Z,21.90
2023-04-05T20:35:31.779Z,21.90
2023-04-05T20:38:40.295Z,21.90
2023-04-05T20:41:48.491Z,21.90
2023-04-05T20:44:57.217Z,21.80
2023-04-05T20:48:07.261Z,21.80
2023-04-05T20:51:15.652Z,21.80
2023-04-05T20:54:24.182Z,21.80
2023-04-05T20:57:32.130Z,21.80
2023-04-05T21:00:41.570Z,21.80
2023-04-05T21:03:51.122Z,21.80
2023-04-05T21:06:59.162Z,21.80
2023-04-05T21:10:08.042Z,21.80
2023-04-05T21:13:16.413Z,21.80
2023-04-05T21:16:24.521Z,21.80
2023-04-05T21:19:33.911Z,21.80
2023-04-05T21:22:42.419Z,21.80
2023-04-05T21:25:50.694Z,21.80
2023-04-05T21:28:58.751Z,21.80
2023-04-05T21:32:07.126Z,21.80
2023-04-05T21:35:16.884Z,21.80
2023-04-05T21:38:25.087Z,21.80
2023-04-05T21:41:33.301Z,21.80
2023-04-05T21:44:41.221Z,21.80
2023-04-05T21:47:49.652Z,21.80
2023-04-05T21:50:59.196Z,21.80
2023-04-05T21:54:07.656Z,21.80
2023-04-05T21:57:15.757Z,21.80
2023-04-05T22:00:24.057Z,21.80
2023-04-05T22:03:31.963Z,21.80
2023-04-05T22:06:41.649Z,21.70
2023-04-05T22:09:49.948Z,21.70
2023-04-05T22:12:57.899Z,21.70
2023-04-05T22:16:06.170Z,21.70
2023-04-05T22:19:14.507Z,21.70
2023-04-05T22:22:24.035Z,21.70
2023-04-05T22:25:31.881Z,21.70
2023-04-05T22:28:39.916Z,21.70
2023-04-05T22:31:48.619Z,21.70
2023-04-05T22:34:56.869Z,21.70
2023-04-05T22:38:06.551Z,21.70
2023-04-05T22:41:14.694Z,21.70
2023-04-05T22:44:24.180Z,21.70
2023-04-05T22:47:32.134Z,21.70
2023-04-05T22:50:40.470Z,21.70
2023-04-05T22:53:49.791Z,21.70
2023-04-05T22:56:58.088Z,21.70
2023-04-05T23:00:07.260Z,21.70
2023-04-05T23:03:15.372Z,21.70
2023-04-05T23:06:23.617Z,21.60
2023-04-05T23:09:33.236Z,21.70
2023-04-05T23:12:41.074Z,21.60
2023-04-05T23:15:49.105Z,21.60
2023-04-05T23:18:56.940Z,21.60
2023-04-05T23:22:05.147Z,21.60
2023-04-05T23:25:14.688Z,21.60
2023-04-05T23:28:22.581Z,21.60
2023-04-05T23:31:30.776Z,21.60
2023-04-05T23:34:38.820Z,21.60
2023-04-05T23:37:47.069Z,21.60
2023-04-05T23:40:56.730Z,21.70
2023-04-05T23:44:04.896Z,21.70
2023-04-05T23:47:13.234Z,21.70
2023-04-05T23:50:21.594Z,21.70
2023-04-05T23:53:30.079Z,21.70
2023-04-05T23:56:39.441Z,21.70
2023-04-05T23:59:47.344Z,21.70
